createdAt,value
2023-08-28T00:00:44.930Z,59.67
2023-08-28T00:03:30.660Z,59.85
2023-08-28T00:05:59.150Z,60.18
2023-08-28T00:08:27.780Z,60.38
2023-08-28T00:10:56.569Z,60.99
2023-08-28T00:13:25.073Z,60.94
2023-08-28T00:15:53.793Z,61.01
2023-08-28T00:18:22.738Z,61.76
2023-08-28T00:20:51.353Z,61.44
2023-08-28T00:23:19.699Z,61.52
2023-08-28T00:25:48.287Z,61.14
2023-08-28T00:28:16.878Z,62.02
2023-08-28T00:30:45.316Z,61.77
2023-08-28T00:33:13.736Z,61.35
2023-08-28T00:35:44.211Z,61.36
2023-08-28T00:38:13.670Z,62.26
2023-08-28T00:40:42.662Z,62.07
2023-08-28T00:43:11.145Z,61.35
2023-08-28T00:45:43.427Z,61.73
2023-08-28T00:48:15.691Z,62.18
2023-08-28T00:50:45.700Z,62.48
2023-08-28T00:53:14.613Z,62.57
2023-08-28T00:55:44.513Z,62.55
2023-08-28T00:58:14.225Z,62.75
2023-08-28T01:00:42.725Z,63.05
2023-08-28T01:03:11.232Z,63.32
2023-08-28T01:06:01.108Z,63.76
2023-08-28T01:08:49.364Z,64.39
2023-08-28T01:11:33.063Z,64.58
2023-08-28T01:14:28.581Z,63.89
2023-08-28T01:17:01.994Z,63.79
2023-08-28T01:19:36.662Z,64.11
2023-08-28T01:22:43.603Z,63.80
2023-08-28T01:25:13.582Z,63.61
2023-08-28T01:27:43.153Z,64.64
2023-08-28T01:30:13.187Z,63.98
2023-08-28T01:32:43.588Z,63.63
2023-08-28T01:35:31.210Z,63.63
2023-08-28T01:38:18.425Z,64.07
2023-08-28T01:41:02.393Z,64.48
2023-08-28T01:43:38.859Z,64.68
2023-08-28T01:46:08.523Z,64.56
2023-08-28T01:48:42.470Z,64.84
2023-08-28T01:51:10.837Z,66.38
2023-08-28T01:53:39.160Z,66.80
2023-08-28T01:56:10.416Z,66.63
2023-08-28T01:58:41.216Z,66.28
2023-08-28T02:01:09.673Z,66.67
2023-08-28T02:03:40.011Z,66.26
2023-08-28T02:06:10.263Z,66.19
2023-08-28T02:08:39.120Z,66.77
2023-08-28T02:11:07.721Z,66.24
2023-08-28T02:13:36.701Z,66.03
2023-08-28T02:16:05.487Z,66.80
2023-08-28T02:18:33.912Z,67.17
2023-08-28T02:21:02.598Z,66.86
2023-08-28T02:23:31.138Z,68.28
2023-08-28T02:25:59.466Z,68.82
2023-08-28T02:28:27.896Z,69.46
2023-08-28T02:30:59.921Z,68.54
2023-08-28T02:33:28.476Z,67.56
2023-08-28T02:35:57.353Z,66.89
2023-08-28T02:38:27.412Z,67.08
2023-08-28T02:41:07.104Z,66.78
2023-08-28T02:43:35.628Z,66.90
2023-08-28T02:46:04.395Z,67.13
2023-08-28T02:48:33.063Z,68.22
2023-08-28T02:51:01.313Z,68.35
2023-08-28T02:53:29.868Z,68.17
2023-08-28T02:56:20.071Z,68.24
2023-08-28T02:58:48.412Z,68.15
2023-08-28T03:01:16.925Z,67.78
2023-08-28T03:03:45.333Z,68.14
2023-08-28T03:06:14.172Z,68.71
2023-08-28T03:08:42.489Z,68.16
2023-08-28T03:11:10.916Z,67.95
2023-08-28T03:13:39.319Z,68.12
2023-08-28T03:16:07.721Z,68.20
2023-08-28T03:18:36.060Z,68.21
2023-08-28T03:21:04.444Z,68.89
2023-08-28T03:23:32.832Z,69.79
2023-08-28T03:26:01.294Z,69.36
2023-08-28T03:28:30.151Z,70.05
2023-08-28T03:30:59.489Z,70.78
2023-08-28T03:33:29.005Z,72.37
2023-08-28T03:35:57.898Z,72.00
2023-08-28T03:38:26.676Z,71.70
2023-08-28T03:40:55.917Z,71.99
2023-08-28T03:43:24.709Z,72.40
2023-08-28T03:45:53.279Z,71.81
2023-08-28T03:48:22.553Z,72.55
2023-08-28T03:50:52.205Z,72.80
2023-08-28T03:53:21.465Z,71.87
2023-08-28T03:55:50.664Z,72.33
2023-08-28T03:58:19.573Z,72.50
2023-08-28T04:00:48.240Z,72.88
2023-08-28T04:03:17.211Z,71.93
2023-08-28T04:05:47.004Z,71.32
2023-08-28T04:08:16.394Z,71.62
2023-08-28T04:10:44.964Z,72.80
2023-08-28T04:13:13.834Z,72.11
2023-08-28T04:15:42.421Z,70.92
2023-08-28T04:18:10.926Z,70.46
2023-08-28T04:20:39.424Z,70.30
2023-08-28T04:23:07.968Z,70.19
2023-08-28T04:25:36.143Z,70.46
2023-08-28T04:28:05.185Z,71.40
2023-08-28T04:30:34.848Z,71.71
2023-08-28T04:33:03.270Z,71.49
2023-08-28T04:35:32.018Z,71.68
2023-08-28T04:38:01.340Z,71.32
2023-08-28T04:40:29.854Z,71.55
2023-08-28T04:42:58.301Z,71.02
2023-08-28T04:45:26.983Z,70.10
2023-08-28T04:47:55.595Z,69.60
2023-08-28T04:50:24.247Z,69.38
2023-08-28T04:52:53.033Z,69.61
2023-08-28T04:55:21.580Z,69.73
2023-08-28T04:57:50.090Z,69.24
2023-08-28T05:00:18.905Z,68.88
2023-08-28T05:02:47.214Z,68.78
2023-08-28T05:05:16.130Z,68.65
2023-08-28T05:07:44.502Z,68.74
2023-08-28T05:10:13.073Z,68.28
2023-08-28T05:12:41.827Z,67.88
2023-08-28T05:15:11.843Z,67.50
2023-08-28T05:17:40.365Z,67.35
2023-08-28T05:20:09.431Z,66.86
2023-08-28T05:22:37.808Z,66.40
2023-08-28T05:25:06.696Z,65.85
2023-08-28T05:27:35.224Z,65.34
2023-08-28T05:30:04.324Z,64.76
2023-08-28T05:32:34.218Z,64.13
2023-08-28T05:35:02.595Z,63.66
2023-08-28T05:37:31.926Z,63.07
2023-08-28T05:40:01.189Z,62.53
2023-08-28T05:42:29.463Z,61.84
2023-08-28T05:44:57.837Z,61.40
2023-08-28T05:47:28.213Z,60.93
2023-08-28T05:49:56.755Z,60.05
2023-08-28T05:52:25.069Z,59.28
2023-08-28T05:54:54.532Z,57.32
2023-08-28T05:57:24.791Z,55.39
2023-08-28T05:59:53.336Z,55.13
2023-08-28T06:02:21.920Z,54.48
2023-08-28T06:04:52.990Z,54.02
2023-08-28T06:07:22.368Z,52.86
2023-08-28T06:09:50.757Z,49.96
2023-08-28T06:12:21.722Z,51.02
2023-08-28T06:14:51.311Z,48.72
2023-08-28T06:17:22.443Z,45.36
2023-08-28T06:19:51.693Z,44.79
2023-08-28T06:22:20.164Z,45.59
2023-08-28T06:24:54.121Z,44.94
2023-08-28T06:27:22.621Z,39.55
2023-08-28T06:29:52.070Z,40.79
2023-08-28T06:32:20.554Z,41.61
2023-08-28T06:34:49.101Z,41.29
2023-08-28T06:37:17.676Z,41.14
2023-08-28T06:39:46.065Z,38.66
2023-08-28T06:42:14.848Z,38.32
2023-08-28T06:44:44.160Z,33.50
2023-08-28T06:47:12.633Z,32.05
2023-08-28T06:49:41.178Z,31.90
2023-08-28T06:52:10.265Z,34.10
2023-08-28T06:57:09.948Z,29.13
2023-08-28T06:59:38.603Z,28.91
2023-08-28T07:02:07.032Z,29.78
2023-08-28T07:04:35.406Z,28.41
2023-08-28T07:07:03.980Z,27.74
2023-08-28T07:09:32.366Z,27.87
2023-08-28T07:12:00.755Z,28.48
2023-08-28T07:14:29.462Z,28.80
2023-08-28T07:16:57.717Z,28.93
2023-08-28T07:19:26.026Z,28.79
2023-08-28T07:21:56.160Z,29.56
2023-08-28T07:24:24.645Z,29.44
2023-08-28T07:26:52.971Z,29.47
2023-08-28T07:29:21.424Z,29.41
2023-08-28T07:31:49.740Z,29.89
2023-08-28T07:34:18.319Z,29.18
2023-08-28T07:36:46.699Z,28.79
2023-08-28T07:39:14.899Z,29.13
2023-08-28T07:41:43.459Z,28.55
2023-08-28T07:44:14.605Z,27.67
2023-08-28T07:46:43.305Z,27.96
2023-08-28T07:49:11.788Z,27.55
2023-08-28T07:51:40.297Z,27.19
2023-08-28T07:54:09.316Z,27.32
2023-08-28T07:56:37.657Z,26.79
2023-08-28T07:59:06.052Z,26.61
2023-08-28T08:01:34.384Z,26.19
2023-08-28T08:04:02.856Z,26.59
2023-08-28T08:06:31.464Z,26.11
2023-08-28T08:09:00.058Z,26.48
2023-08-28T08:11:28.530Z,26.09
2023-08-28T08:13:56.811Z,25.90
2023-08-28T08:16:25.604Z,24.97
2023-08-28T08:18:54.084Z,25.45
2023-08-28T08:21:22.497Z,25.23
2023-08-28T08:23:51.015Z,24.82
2023-08-28T08:26:20.711Z,24.55
2023-08-28T08:28:49.752Z,24.97
2023-08-28T08:31:18.404Z,25.00
2023-08-28T08:33:47.025Z,24.49
2023-08-28T08:36:18.764Z,24.05
2023-08-28T08:38:46.997Z,24.42
2023-08-28T08:41:15.400Z,24.02
2023-08-28T08:43:43.930Z,23.13
2023-08-28T08:46:12.852Z,23.42
2023-08-28T08:48:43.811Z,22.86
2023-08-28T08:51:15.632Z,23.62
2023-08-28T08:53:50.457Z,23.08
2023-08-28T08:56:21.197Z,23.32
2023-08-28T08:58:51.354Z,22.85
2023-08-28T09:01:21.172Z,23.24
2023-08-28T09:03:50.812Z,23.05
2023-08-28T09:06:19.736Z,22.81
2023-08-28T09:08:48.731Z,22.16
2023-08-28T09:11:17.006Z,22.10
2023-08-28T09:13:45.604Z,22.57
2023-08-28T09:16:14.326Z,22.57
2023-08-28T09:18:43.599Z,22.05
2023-08-28T09:21:13.499Z,22.43
2023-08-28T09:23:44.284Z,22.35
2023-08-28T09:26:17.165Z,21.92
2023-08-28T09:29:07.357Z,22.45
2023-08-28T09:31:38.323Z,21.86
2023-08-28T09:34:09.612Z,21.38
2023-08-28T09:36:44.585Z,21.55
2023-08-28T09:39:14.021Z,22.22
2023-08-28T09:41:42.628Z,21.14
2023-08-28T09:44:12.080Z,21.41
2023-08-28T09:46:43.706Z,21.14
2023-08-28T09:49:14.718Z,20.88
2023-08-28T09:51:45.363Z,21.26
2023-08-28T09:54:15.421Z,20.49
2023-08-28T09:56:45.249Z,20.56
2023-08-28T09:59:15.220Z,20.38
2023-08-28T10:01:44.452Z,20.27
2023-08-28T10:04:15.261Z,20.72
2023-08-28T10:06:51.329Z,21.30
2023-08-28T10:09:23.694Z,20.25
2023-08-28T10:11:53.508Z,20.50
2023-08-28T10:14:25.172Z,20.06
2023-08-28T10:17:07.138Z,19.29
2023-08-28T10:19:46.453Z,19.59
2023-08-28T10:22:15.188Z,19.09
2023-08-28T10:24:46.967Z,18.71
2023-08-28T10:27:16.305Z,18.52
2023-08-28T10:29:51.181Z,18.67
2023-08-28T10:32:21.738Z,18.36
2023-08-28T10:34:53.826Z,18.23
2023-08-28T10:37:28.710Z,18.43
2023-08-28T10:40:03.367Z,18.26
2023-08-28T10:42:33.465Z,18.89
2023-08-28T10:45:02.873Z,19.02
2023-08-28T10:47:32.317Z,19.14
2023-08-28T10:50:00.724Z,19.08
2023-08-28T10:52:29.566Z,19.12
2023-08-28T10:55:03.926Z,19.25
2023-08-28T10:57:32.489Z,19.12
2023-08-28T11:00:09.105Z,18.92
2023-08-28T11:03:10.453Z,18.94
2023-08-28T11:05:41.041Z,19.83
2023-08-28T11:08:12.603Z,19.25
2023-08-28T11:10:45.796Z,18.53
2023-08-28T11:13:25.011Z,18.26
2023-08-28T11:16:04.714Z,18.27
2023-08-28T11:18:33.544Z,18.95
2023-08-28T11:21:04.796Z,19.33
2023-08-28T11:23:38.614Z,18.47
2023-08-28T11:26:19.040Z,18.06
2023-08-28T11:28:49.216Z,18.69
2023-08-28T11:31:17.694Z,18.24
2023-08-28T11:33:50.798Z,18.10
2023-08-28T11:36:20.512Z,17.94
2023-08-28T11:38:50.192Z,17.52
2023-08-28T11:41:21.221Z,18.06
2023-08-28T11:43:50.049Z,17.88
2023-08-28T11:46:18.644Z,17.02
2023-08-28T11:48:47.330Z,17.25
2023-08-28T11:51:15.863Z,16.71
2023-08-28T11:53:44.815Z,17.24
2023-08-28T11:56:14.660Z,17.75
2023-08-28T11:58:43.736Z,17.72
2023-08-28T12:01:15.417Z,17.87
2023-08-28T12:03:44.444Z,18.06
2023-08-28T12:06:15.645Z,17.98
2023-08-28T12:08:45.914Z,17.46
2023-08-28T12:11:15.404Z,16.96
2023-08-28T12:13:43.780Z,17.00
2023-08-28T12:16:19.208Z,17.23
2023-08-28T12:18:47.966Z,16.79
2023-08-28T12:21:18.448Z,16.37
2023-08-28T12:23:52.994Z,16.10
2023-08-28T12:26:25.350Z,15.75
2023-08-28T12:28:54.573Z,15.81
2023-08-28T12:31:32.293Z,15.49
2023-08-28T12:34:08.556Z,15.57
2023-08-28T12:36:39.185Z,15.47
2023-08-28T12:39:08.559Z,15.35
2023-08-28T12:41:49.124Z,15.06
2023-08-28T12:44:17.594Z,14.83
2023-08-28T12:46:46.331Z,14.53
2023-08-28T12:49:15.892Z,14.12
2023-08-28T12:51:45.005Z,14.47
2023-08-28T12:54:23.304Z,15.19
2023-08-28T12:56:55.059Z,14.55
2023-08-28T12:59:23.960Z,14.71
2023-08-28T13:01:53.842Z,14.84
2023-08-28T13:04:24.074Z,15.15
2023-08-28T13:06:53.505Z,15.52
2023-08-28T13:09:23.431Z,15.66
2023-08-28T13:11:52.178Z,15.54
2023-08-28T13:14:21.414Z,15.19
2023-08-28T13:16:50.592Z,14.62
2023-08-28T13:19:19.911Z,14.60
2023-08-28T13:21:49.221Z,15.05
2023-08-28T13:24:21.226Z,14.70
2023-08-28T13:26:55.147Z,14.52
2023-08-28T13:29:23.666Z,14.39
2023-08-28T13:31:52.162Z,14.46
2023-08-28T13:34:20.841Z,14.40
2023-08-28T13:36:49.486Z,14.25
2023-08-28T13:39:18.729Z,14.49
2023-08-28T13:41:47.215Z,14.04
2023-08-28T13:44:15.387Z,13.84
2023-08-28T13:46:44.180Z,13.61
2023-08-28T13:49:12.554Z,13.34
2023-08-28T13:51:40.946Z,13.23
2023-08-28T13:54:09.735Z,13.65
2023-08-28T13:56:38.460Z,13.89
2023-08-28T13:59:07.329Z,14.06
2023-08-28T14:01:35.794Z,13.99
2023-08-28T14:04:05.110Z,13.74
2023-08-28T14:06:33.883Z,14.14
2023-08-28T14:09:03.720Z,14.23
2023-08-28T14:11:32.307Z,14.16
2023-08-28T14:14:00.986Z,14.04
2023-08-28T14:16:29.769Z,14.13
2023-08-28T14:18:58.126Z,13.68
2023-08-28T14:21:26.636Z,13.67
2023-08-28T14:23:55.005Z,13.27
2023-08-28T14:26:24.213Z,13.42
2023-08-28T14:28:52.892Z,13.47
2023-08-28T14:31:21.596Z,13.32
2023-08-28T14:33:50.181Z,13.43
2023-08-28T14:36:18.749Z,13.48
2023-08-28T14:38:47.175Z,13.12
2023-08-28T14:41:15.658Z,13.04
2023-08-28T14:43:43.839Z,12.37
2023-08-28T14:46:12.171Z,11.65
2023-08-28T14:48:40.550Z,11.70
2023-08-28T14:51:08.890Z,11.51
2023-08-28T14:53:37.413Z,11.87
2023-08-28T14:56:05.996Z,11.82
2023-08-28T14:58:34.379Z,11.93
2023-08-28T15:01:04.127Z,11.74
2023-08-28T15:03:32.792Z,11.55
2023-08-28T15:06:01.470Z,11.75
2023-08-28T15:08:30.270Z,11.69
2023-08-28T15:10:58.595Z,11.10
2023-08-28T15:13:27.119Z,11.28
2023-08-28T15:15:56.014Z,11.48
2023-08-28T15:18:24.701Z,11.77
2023-08-28T15:20:53.491Z,11.67
2023-08-28T15:23:21.974Z,11.75
2023-08-28T15:25:50.470Z,11.61
2023-08-28T15:28:18.863Z,11.91
2023-08-28T15:30:52.130Z,12.00
2023-08-28T15:33:20.616Z,12.00
2023-08-28T15:35:50.020Z,11.72
2023-08-28T15:38:18.604Z,11.73
2023-08-28T15:40:47.132Z,11.49
2023-08-28T15:43:17.578Z,11.39
2023-08-28T15:45:52.996Z,11.89
2023-08-28T15:48:21.653Z,12.12
2023-08-28T15:50:50.443Z,12.10
2023-08-28T15:53:18.945Z,12.24
2023-08-28T15:55:55.002Z,12.41
2023-08-28T15:58:24.809Z,12.83
2023-08-28T16:01:03.203Z,13.17
2023-08-28T16:03:32.768Z,13.21
2023-08-28T16:06:10.562Z,13.99
2023-08-28T16:08:39.726Z,14.16
2023-08-28T16:11:08.655Z,14.78
2023-08-28T16:13:37.098Z,15.36
2023-08-28T16:16:05.508Z,15.67
2023-08-28T16:18:33.884Z,15.94
2023-08-28T16:21:02.055Z,16.48
2023-08-28T16:23:30.268Z,16.80
2023-08-28T16:25:58.794Z,17.30
2023-08-28T16:28:27.319Z,17.77
2023-08-28T16:30:55.988Z,18.18
2023-08-28T16:33:24.866Z,18.34
2023-08-28T16:35:53.138Z,18.78
2023-08-28T16:38:21.563Z,19.42
2023-08-28T16:40:50.237Z,19.56
2023-08-28T16:43:18.734Z,19.68
2023-08-28T16:45:47.069Z,20.11
2023-08-28T16:48:15.756Z,20.64
2023-08-28T16:50:46.392Z,21.28
2023-08-28T16:53:15.228Z,21.11
2023-08-28T16:55:44.243Z,21.02
2023-08-28T16:58:13.274Z,21.94
2023-08-28T17:00:41.563Z,22.18
2023-08-28T17:03:10.372Z,22.15
2023-08-28T17:05:39.238Z,22.62
2023-08-28T17:08:10.277Z,23.04
2023-08-28T17:10:40.244Z,23.74
2023-08-28T17:13:08.625Z,23.56
2023-08-28T17:15:38.280Z,23.97
2023-08-28T17:18:07.208Z,24.65
2023-08-28T17:20:35.863Z,24.32
2023-08-28T17:23:05.275Z,25.36
2023-08-28T17:25:33.860Z,25.09
2023-08-28T17:28:02.290Z,25.62
2023-08-28T17:30:30.925Z,25.18
2023-08-28T17:32:59.843Z,25.41
2023-08-28T17:35:31.359Z,25.52
2023-08-28T17:38:00.088Z,26.11
2023-08-28T17:40:28.847Z,25.65
2023-08-28T17:42:57.226Z,26.12
2023-08-28T17:45:25.710Z,26.44
2023-08-28T17:47:54.516Z,27.36
2023-08-28T17:50:23.105Z,27.49
2023-08-28T17:52:51.569Z,27.55
2023-08-28T17:55:20.706Z,28.01
2023-08-28T17:57:49.148Z,28.41
2023-08-28T18:00:17.560Z,28.60
2023-08-28T18:03:00.020Z,28.95
2023-08-28T18:05:32.737Z,29.43
2023-08-28T18:08:02.230Z,29.45
2023-08-28T18:10:32.176Z,29.62
2023-08-28T18:13:01.640Z,29.42
2023-08-28T18:15:30.251Z,29.64
2023-08-28T18:17:58.673Z,29.93
2023-08-28T18:20:27.179Z,30.23
2023-08-28T18:22:55.791Z,30.61
2023-08-28T18:25:26.353Z,30.71
2023-08-28T18:28:06.951Z,31.31
2023-08-28T18:30:36.808Z,31.86
2023-08-28T18:33:05.870Z,31.04
2023-08-28T18:35:34.496Z,30.98
2023-08-28T18:38:03.203Z,30.78
2023-08-28T18:40:31.908Z,30.27
2023-08-28T18:43:00.101Z,30.95
2023-08-28T18:45:28.498Z,30.68
2023-08-28T18:47:57.249Z,31.31
2023-08-28T18:50:25.799Z,31.53
2023-08-28T18:52:54.426Z,32.28
2023-08-28T18:55:32.356Z,31.76
2023-08-28T18:58:04.947Z,31.17
2023-08-28T19:00:34.047Z,31.68
2023-08-28T19:03:03.175Z,31.30
2023-08-28T19:05:33.314Z,31.32
2023-08-28T19:08:02.189Z,31.35
2023-08-28T19:10:31.166Z,31.21
2023-08-28T19:12:59.549Z,31.23
2023-08-28T19:15:28.311Z,31.48
2023-08-28T19:17:56.756Z,31.41
2023-08-28T19:20:25.287Z,31.32
2023-08-28T19:22:53.770Z,31.57
2023-08-28T19:25:24.394Z,31.94
2023-08-28T19:27:53.002Z,31.82
2023-08-28T19:30:21.691Z,31.82
2023-08-28T19:32:50.952Z,32.33
2023-08-28T19:35:19.503Z,32.67
2023-08-28T19:37:49.633Z,32.52
2023-08-28T19:40:18.081Z,33.22
2023-08-28T19:42:46.581Z,32.62
2023-08-28T19:45:15.564Z,32.55
2023-08-28T19:47:44.181Z,32.62
2023-08-28T19:50:12.765Z,33.12
2023-08-28T19:52:41.260Z,33.45
2023-08-28T19:55:11.245Z,33.66
2023-08-28T19:57:39.628Z,33.57
2023-08-28T20:00:09.653Z,33.36
2023-08-28T20:02:39.054Z,33.57
2023-08-28T20:05:08.040Z,33.83
2023-08-28T20:07:36.454Z,33.90
2023-08-28T20:10:06.150Z,33.74
2023-08-28T20:12:34.724Z,34.10
2023-08-28T20:15:03.140Z,33.65
2023-08-28T20:17:32.587Z,34.25
2023-08-28T20:20:01.107Z,34.58
2023-08-28T20:22:29.424Z,35.01
2023-08-28T20:24:57.790Z,35.17
2023-08-28T20:27:26.184Z,35.82
2023-08-28T20:29:54.811Z,36.40
2023-08-28T20:32:23.064Z,36.58
2023-08-28T20:34:51.373Z,36.97
2023-08-28T20:37:19.680Z,36.92
2023-08-28T20:39:48.034Z,36.81
2023-08-28T20:42:17.291Z,37.12
2023-08-28T20:44:45.712Z,37.27
2023-08-28T20:47:14.134Z,37.63
2023-08-28T20:49:44.616Z,38.26
2023-08-28T20:52:13.220Z,38.33
2023-08-28T20:54:41.784Z,38.32
2023-08-28T20:57:11.636Z,38.05
2023-08-28T20:59:39.882Z,37.75
2023-08-28T21:02:08.257Z,37.72
2023-08-28T21:04:36.681Z,38.84
2023-08-28T21:07:05.230Z,38.80
2023-08-28T21:09:33.910Z,39.22
2023-08-28T21:12:02.251Z,39.12
2023-08-28T21:14:30.689Z,38.64
2023-08-28T21:16:58.897Z,38.26
2023-08-28T21:19:29.208Z,38.93
2023-08-28T21:21:59.785Z,38.99
2023-08-28T21:24:28.291Z,40.63
2023-08-28T21:26:56.552Z,39.83
2023-08-28T21:29:25.095Z,39.64
2023-08-28T21:31:53.644Z,39.72
2023-08-28T21:34:22.121Z,39.99
2023-08-28T21:36:50.431Z,39.63
2023-08-28T21:39:19.082Z,39.33
2023-08-28T21:41:47.572Z,40.40
2023-08-28T21:44:16.471Z,42.75
2023-08-28T21:46:45.083Z,43.43
2023-08-28T21:49:32.579Z,42.99
2023-08-28T21:52:20.410Z,43.42
2023-08-28T21:55:07.743Z,44.32
2023-08-28T21:57:54.648Z,42.08
2023-08-28T22:00:41.796Z,41.14
2023-08-28T22:03:29.298Z,41.05
2023-08-28T22:06:16.216Z,41.42
2023-08-28T22:08:44.817Z,41.92
2023-08-28T22:11:32.842Z,41.30
2023-08-28T22:14:05.180Z,41.95
2023-08-28T22:16:33.823Z,42.04
2023-08-28T22:19:02.437Z,41.95
2023-08-28T22:21:30.811Z,42.18
2023-08-28T22:24:00.066Z,42.35
2023-08-28T22:26:28.822Z,42.98
2023-08-28T22:28:57.340Z,43.10
2023-08-28T22:31:26.026Z,43.08
2023-08-28T22:33:54.818Z,43.22
2023-08-28T22:36:23.423Z,43.95
2023-08-28T22:38:51.989Z,43.84
2023-08-28T22:41:20.477Z,44.84
2023-08-28T22:43:48.962Z,43.93
2023-08-28T22:46:17.214Z,44.03
2023-08-28T22:48:46.236Z,44.02
2023-08-28T22:51:15.834Z,44.36
2023-08-28T22:53:44.440Z,44.02
2023-08-28T22:56:12.751Z,44.62
2023-08-28T22:58:41.295Z,44.78
2023-08-28T23:01:11.714Z,44.43
2023-08-28T23:03:39.973Z,44.71
2023-08-28T23:06:08.634Z,45.20
2023-08-28T23:08:37.161Z,44.97
2023-08-28T23:11:05.640Z,44.62
2023-08-28T23:13:34.123Z,44.88
2023-08-28T23:16:02.445Z,45.34
2023-08-28T23:18:31.395Z,45.41
2023-08-28T23:20:59.785Z,45.28
2023-08-28T23:23:28.466Z,45.30
2023-08-28T23:25:56.849Z,45.68
2023-08-28T23:28:26.102Z,45.28
2023-08-28T23:30:55.144Z,45.20
2023-08-28T23:33:23.423Z,45.41
2023-08-28T23:36:01.973Z,45.87
2023-08-28T23:38:30.152Z,45.62
2023-08-28T23:40:59.051Z,45.56
2023-08-28T23:43:27.589Z,45.56
2023-08-28T23:45:56.160Z,45.53
2023-08-28T23:48:25.038Z,45.54
2023-08-28T23:50:53.661Z,45.99
2023-08-28T23:53:22.347Z,45.85
2023-08-28T23:55:50.730Z,46.30
2023-08-28T23:58:19.286Z,46.21
